Time;durP1;ratioP1;P1;durP2;ratioP2;P2;SDS_P1;SDS_P2;PMS_P1;PMS_P2;Temp;Humidity;BMP_temperature;BMP_pressure;BME280_temperature;BME280_humidity;BME280_pressure;Samples;Min_cycle;Max_cycle;Signal;HPM_P1;HPM_P2
2022/05/26 00:02:05;;;;;;;4.97;3.40;;;;;;;9.39;78.46;101034.51;1855048;77;21058;-91
2022/05/26 00:05:05;;;;;;;7.78;3.47;;;;;;;9.39;78.52;101038.45;1837200;77;21850;-95
2022/05/26 00:07:32;;;;;;;3.95;2.90;;;;;;;9.39;78.55;101037.13;1821282;78;21065;-89
2022/05/26 00:10:27;;;;;;;6.80;3.05;;;;;;;9.40;78.61;101037.59;1820510;78;22467;-92
2022/05/26 00:12:53;;;;;;;;;;;;;;;9.41;78.68;101040.70;1835850;77;21042;-89
2022/05/26 00:15:21;;;;;;;7.30;3.60;;;;;;;9.42;78.78;101040.77;1848482;77;20218;-89
2022/05/26 00:17:55;;;;;;;5.00;3.50;;;;;;;9.43;78.71;101037.70;1854859;77;21011;-93
2022/05/26 00:20:28;;;;;;;6.87;3.80;;;;;;;9.43;78.79;101034.65;1854916;77;21512;-89
2022/05/26 00:23:31;;;;;;;4.33;3.93;;;;;;;9.45;78.82;101030.77;1855922;77;21719;-92
2022/05/26 00:25:58;;;;;;;4.73;3.87;;;;;;;9.45;78.83;101030.77;1855267;77;20980;-90
2022/05/26 00:28:25;;;;;;;4.45;3.72;;;;;;;9.45;78.91;101026.39;1855366;77;21035;-90
2022/05/26 00:30:53;;;;;;;6.47;4.00;;;;;;;9.47;78.89;101019.88;1855192;76;21011;-92
2022/05/26 00:33:20;;;;;;;5.10;4.25;;;;;;;9.48;78.89;101025.62;1855437;76;20988;-92
2022/05/26 00:35:49;;;;;;;7.20;4.03;;;;;;;9.45;78.84;101022.88;1855168;77;21839;-93
2022/05/26 00:38:17;;;;;;;5.65;4.50;;;;;;;9.44;78.88;101018.45;1806417;77;21102;-92
2022/05/26 00:40:44;;;;;;;6.05;4.15;;;;;;;9.44;78.99;101022.00;1842966;77;21078;-91
2022/05/26 00:43:11;;;;;;;5.40;4.65;;;;;;;9.46;79.00;101023.34;1838348;78;21271;-90
2022/05/26 00:45:56;;;;;;;5.62;4.65;;;;;;;9.46;79.04;101022.94;1850194;77;21021;-92
2022/05/26 00:48:27;;;;;;;5.90;4.70;;;;;;;9.47;79.11;101018.14;1780125;80;21764;-90
2022/05/26 00:50:59;;;;;;;6.72;4.62;;;;;;;9.50;79.27;101023.51;1835399;77;21018;-90
2022/05/26 00:57:29;;;;;;;5.00;4.50;;;;;;;9.56;79.45;101031.14;1821081;78;21113;-89
2022/05/26 01:00:12;;;;;;;6.47;4.95;;;;;;;9.61;79.56;101026.91;1821302;78;21050;-92
2022/05/26 01:03:08;;;;;;;5.62;4.80;;;;;;;9.64;79.60;101025.70;1821480;78;22594;-89
2022/05/26 01:05:49;;;;;;;5.22;4.72;;;;;;;9.67;79.71;101028.02;1817564;78;21061;-89
2022/05/26 01:08:44;;;;;;;6.67;5.25;;;;;;;9.69;79.64;101021.50;1818814;78;20999;-89
2022/05/26 01:18:56;;;;;;;6.90;5.08;;;;;;;9.77;79.77;101011.23;1821229;77;22607;-93
2022/05/26 01:21:46;;;;;;;5.55;4.80;;;;;;;9.81;79.81;100999.97;1827446;78;21570;-93
2022/05/26 01:25:01;;;;;;;7.35;5.05;;;;;;;9.81;79.72;101002.16;1827367;77;21069;-90
2022/05/26 01:27:33;;;;;;;;;;;;;;;9.81;79.71;101010.48;1793397;78;21323;-92
2022/05/26 01:30:23;;;;;;;10.53;5.05;;;;;;;9.81;79.74;101009.16;1827005;78;20559;-92
2022/05/26 01:33:18;;;;;;;7.45;5.60;;;;;;;9.80;79.70;101008.28;1842026;77;22748;-89
2022/05/26 01:36:17;;;;;;;7.67;5.22;;;;;;;9.79;79.67;101002.54;1847828;77;21051;-91
2022/05/26 01:39:16;;;;;;;5.35;4.80;;;;;;;9.78;79.64;101006.42;1846297;77;21030;-92
2022/05/26 01:42:49;;;;;;;5.70;5.10;;;;;;;9.78;79.73;101005.11;1842325;77;21034;-90
2022/05/26 01:45:53;;;;;;;5.90;4.85;;;;;;;9.83;79.92;101004.84;1842145;77;21078;-91
2022/05/26 01:49:04;;;;;;;5.90;5.28;;;;;;;9.87;80.00;100998.44;1842110;77;21854;-91
2022/05/26 01:52:05;;;;;;;9.85;5.10;;;;;;;9.93;79.90;100994.68;1723451;82;21124;-91
2022/05/26 01:58:44;;;;;;;5.75;4.55;;;;;;;9.91;79.67;100986.28;1725757;82;21114;-90
2022/05/26 02:01:14;;;;;;;5.90;4.85;;;;;;;9.87;79.60;100986.61;1738591;81;21083;-92
2022/05/26 02:04:09;;;;;;;7.37;4.62;;;;;;;9.85;79.55;100978.18;1739713;82;21723;-88
2022/05/26 02:06:51;;;;;;;5.60;4.47;;;;;;;9.85;79.61;100971.61;1739036;82;21044;-89
2022/05/26 02:13:25;;;;;;;4.87;4.20;;;;;;;9.81;79.49;100958.78;1732384;82;21114;-90
2022/05/26 02:16:50;;;;;;;4.83;4.37;;;;;;;9.83;79.47;100948.32;1703158;83;21056;-90
2022/05/26 02:23:34;;;;;;;4.78;4.20;;;;;;;9.98;79.70;100947.91;1670696;85;21154;-89
2022/05/26 02:26:07;;;;;;;5.50;4.58;;;;;;;10.07;79.56;100942.49;1689867;83;21097;-89
2022/05/26 02:31:20;;;;;;;7.97;4.47;;;;;;;10.20;79.49;100934.98;1752513;79;21015;-92
2022/05/26 02:33:46;;;;;;;6.45;4.45;;;;;;;10.27;79.35;100933.01;1815050;78;21775;-92
2022/05/26 02:36:29;;;;;;;4.35;4.05;;;;;;;10.35;79.27;100938.09;1818195;77;21032;-92
2022/05/26 02:38:56;;;;;;;6.12;4.33;;;;;;;10.42;79.26;100933.47;1851846;77;21144;-89
2022/05/26 02:41:24;;;;;;;5.03;4.30;;;;;;;10.50;79.21;100927.99;1844374;77;21319;-90
2022/05/26 02:43:51;;;;;;;6.05;4.70;;;;;;;10.59;79.32;100926.48;1854501;77;21008;-89
2022/05/26 02:46:42;;;;;;;4.67;4.00;;;;;;;10.67;79.32;100920.56;1854570;77;21505;-90
2022/05/26 02:49:33;;;;;;;5.47;4.15;;;;;;;10.74;79.16;100932.16;1780525;77;21026;-90
2022/05/26 02:52:42;;;;;;;6.00;4.03;;;;;;;10.82;79.08;100929.73;1858334;77;21057;-92
2022/05/26 02:55:26;;;;;;;5.40;4.53;;;;;;;10.91;78.90;100927.34;1857797;77;21089;-91
2022/05/26 02:58:11;;;;;;;5.15;3.47;;;;;;;11.01;78.79;100930.67;1858426;76;21077;-90
2022/05/26 03:00:58;;;;;;;4.30;3.90;;;;;;;11.11;78.64;100928.28;1858325;77;21858;-92
2022/05/26 03:03:31;;;;;;;5.50;4.00;;;;;;;11.18;78.49;100929.79;1857752;77;21038;-89
2022/05/26 03:06:25;;;;;;;3.98;3.60;;;;;;;11.24;78.36;100930.38;1856973;76;21045;-92
2022/05/26 03:08:52;;;;;;;5.85;4.12;;;;;;;11.29;78.27;100923.48;1857554;77;21022;-89
2022/05/26 03:11:53;;;;;;;6.17;3.98;;;;;;;11.35;78.12;100922.30;1854709;77;21031;-88
2022/05/26 03:14:26;;;;;;;4.03;3.65;;;;;;;11.38;78.06;100919.75;1855103;77;21916;-89
2022/05/26 03:17:02;;;;;;;5.43;4.07;;;;;;;11.41;78.07;100915.89;1855108;77;21038;-89
2022/05/26 03:23:24;;;;;;;3.90;3.60;;;;;;;11.48;77.94;100914.27;1854643;77;21034;-88
2022/05/26 03:26:12;;;;;;;5.05;4.20;;;;;;;11.55;77.99;100912.25;1855119;77;21051;-91
2022/05/26 03:29:33;;;;;;;5.03;4.53;;;;;;;11.53;77.83;100890.67;1821572;77;21489;-95
2022/05/26 03:32:04;;;;;;;8.03;4.20;;;;;;;11.62;77.81;100898.80;1853817;77;21202;-89
2022/05/26 03:43:29;;;;;;;8.53;4.33;;;;;;;11.89;77.59;100893.67;1821144;78;22211;-94
2022/05/26 03:46:29;;;;;;;4.80;4.40;;;;;;;11.99;77.59;100892.62;1815892;78;21044;-94
2022/05/26 03:49:55;;;;;;;5.50;4.65;;;;;;;12.09;77.43;100886.20;1821553;78;21040;-95
2022/05/26 03:55:59;;;;;;;7.05;4.65;;;;;;;12.39;77.36;100883.32;1832521;76;21000;-90
2022/05/26 03:58:35;;;;;;;7.12;4.55;;;;;;;12.58;77.37;100885.44;1797649;78;21794;-89
2022/05/26 04:01:46;;;;;;;5.67;4.25;;;;;;;12.73;77.17;100877.36;1796084;79;21501;-93
2022/05/26 04:04:13;;;;;;;4.85;3.72;;;;;;;12.84;76.88;100879.77;1807898;77;21088;-87
2022/05/26 04:06:50;;;;;;;6.03;3.70;;;;;;;12.94;76.46;100871.56;1833220;77;21290;-90
2022/05/26 04:09:22;;;;;;;5.42;4.05;;;;;;;13.03;76.36;100876.56;1843508;77;20977;-92
2022/05/26 04:11:55;;;;;;;4.50;4.10;;;;;;;13.08;76.10;100871.34;1843245;77;21726;-92
2022/05/26 04:14:23;;;;;;;5.20;3.72;;;;;;;13.11;75.84;100873.16;1840409;77;20996;-87
2022/05/26 04:16:50;;;;;;;4.50;3.83;;;;;;;13.11;75.60;100867.44;1843404;77;21008;-88
2022/05/26 04:19:48;;;;;;;4.90;3.72;;;;;;;13.11;75.63;100854.66;1811906;77;21039;-92
2022/05/26 04:22:39;;;;;;;7.78;3.12;;;;;;;13.21;75.49;100861.86;1799902;79;21085;-96
2022/05/26 04:25:11;;;;;;;5.65;3.47;;;;;;;13.28;75.32;100861.54;1843518;77;22598;-89
2022/05/26 04:27:49;;;;;;;4.60;3.05;;;;;;;13.34;75.24;100862.54;1843734;77;21039;-93
2022/05/26 04:30:45;;;;;;;3.90;3.30;;;;;;;13.41;75.16;100863.54;1863948;76;20995;-96
2022/05/26 04:33:23;;;;;;;3.75;3.35;;;;;;;13.48;75.06;100861.45;1838317;75;21043;-96
2022/05/26 04:50:42;;;;;;;5.08;3.47;;;;;;;14.11;73.77;100843.75;1723581;81;21068;-89
2022/05/26 04:53:18;;;;;;;4.03;3.45;;;;;;;14.24;73.54;100848.76;1702828;82;21102;-92
2022/05/26 04:55:46;;;;;;;3.58;3.27;;;;;;;14.37;73.46;100832.58;1741602;81;21784;-92
2022/05/26 04:58:24;;;;;;;6.00;3.87;;;;;;;14.49;73.29;100836.70;1714996;83;21141;-89
2022/05/26 05:00:51;;;;;;;4.28;3.67;;;;;;;14.62;73.00;100839.07;1690664;83;21101;-88
2022/05/26 05:03:35;;;;;;;4.83;4.10;;;;;;;14.73;72.83;100838.73;1700755;83;21584;-92
2022/05/26 05:06:02;;;;;;;5.10;4.25;;;;;;;14.88;72.70;100839.73;1711386;82;21098;-89
2022/05/26 05:08:29;;;;;;;5.25;3.45;;;;;;;15.10;72.67;100836.83;1714555;83;21757;-90
2022/05/26 05:11:10;;;;;;;7.00;4.15;;;;;;;15.28;72.50;100826.81;1706527;83;21191;-93
2022/05/26 05:13:39;;;;;;;3.98;3.58;;;;;;;15.53;72.08;100830.05;1693606;83;21058;-91
2022/05/26 05:16:32;;;;;;;5.62;3.87;;;;;;;15.82;71.92;100832.44;1730947;82;21600;-91
2022/05/26 18:31:02;;;;;;;10.40;3.00;;;;;;;14.57;46.54;100905.67;1796301;77;22577;-88
2022/05/26 18:33:29;;;;;;;7.55;2.47;;;;;;;14.45;47.10;100909.05;1780321;80;21028;-86
2022/05/26 18:35:56;;;;;;;5.92;2.20;;;;;;;14.36;47.14;100904.97;1773425;80;21606;-87
2022/05/26 18:38:24;;;;;;;9.25;2.37;;;;;;;14.30;48.28;100915.46;1760780;80;21024;-88
2022/05/26 18:40:51;;;;;;;13.62;5.78;;;;;;;14.28;47.99;100909.27;1762773;80;21031;-88
2022/05/26 18:43:18;;;;;;;5.50;2.58;;;;;;;14.21;47.91;100906.99;1764524;80;21823;-86
2022/05/26 18:45:45;;;;;;;8.20;2.20;;;;;;;14.19;48.38;100911.37;1776198;80;21588;-86
2022/05/26 18:48:15;;;;;;;7.15;2.00;;;;;;;14.18;47.88;100910.91;1774421;80;21127;-85
2022/05/26 18:50:44;;;;;;;10.40;2.80;;;;;;;14.17;48.14;100917.97;1742784;80;40883;-85
2022/05/26 18:53:25;;;;;;;10.10;3.33;;;;;;;14.14;47.84;100914.39;1775103;79;21569;-92
2022/05/26 18:55:53;;;;;;;9.05;3.20;;;;;;;14.07;47.83;100931.06;1776226;80;22574;-89
2022/05/26 18:58:23;;;;;;;12.93;2.98;;;;;;;14.00;48.45;100941.98;1771549;80;21517;-88
2022/05/26 19:00:54;;;;;;;11.78;3.27;;;;;;;13.93;47.93;100931.77;1771035;80;22152;-87
2022/05/26 19:03:36;;;;;;;13.88;3.12;;;;;;;13.84;48.04;100938.23;1776573;79;21055;-89
2022/05/26 19:06:21;;;;;;;8.90;2.85;;;;;;;13.77;48.14;100932.40;1780455;80;21616;-91
2022/05/26 19:08:54;;;;;;;5.90;2.20;;;;;;;13.62;48.28;100927.77;1790296;79;21682;-89
2022/05/26 19:11:40;;;;;;;5.87;2.22;;;;;;;13.58;48.42;100939.17;1783717;80;21060;-88
2022/05/26 19:14:26;;;;;;;8.23;2.30;;;;;;;13.48;48.60;100939.45;1774706;79;21706;-95
2022/05/26 19:16:55;;;;;;;5.83;2.30;;;;;;;13.34;48.82;100934.36;1774769;80;21032;-88
2022/05/26 19:19:31;;;;;;;9.53;2.47;;;;;;;13.26;49.04;100939.49;1781714;80;21064;-91
2022/05/26 19:22:04;;;;;;;8.48;2.77;;;;;;;13.17;49.22;100938.01;1747400;79;21780;-91
2022/05/26 19:24:38;;;;;;;14.33;3.98;;;;;;;13.06;49.41;100934.29;1770820;80;21107;-91
2022/05/26 19:27:04;;;;;;;13.00;4.70;;;;;;;12.95;49.58;100935.41;1776064;80;21087;-90
2022/05/26 19:29:39;;;;;;;16.62;6.58;;;;;;;12.84;49.84;100942.72;1767633;79;21060;-92
2022/05/26 19:32:22;;;;;;;11.28;3.85;;;;;;;12.74;49.99;100947.35;1763674;78;21283;-92
2022/05/26 19:34:55;;;;;;;9.00;4.05;;;;;;;12.67;50.10;100944.56;1754941;79;21872;-86
2022/05/26 19:37:22;;;;;;;13.08;5.70;;;;;;;12.58;50.40;100945.30;1747072;79;21853;-86
2022/05/26 19:39:48;;;;;;;8.73;4.47;;;;;;;12.51;50.65;100947.34;1764400;79;21246;-89
2022/05/26 19:42:20;;;;;;;30.97;15.15;;;;;;;12.44;50.74;100945.00;1795776;79;21556;-89
2022/05/26 19:44:47;;;;;;;18.92;10.70;;;;;;;12.34;50.96;100943.92;1763031;79;21047;-88
2022/05/26 19:47:16;;;;;;;20.12;11.30;;;;;;;12.29;51.23;100944.25;1790739;79;22640;-86
2022/05/26 19:49:43;;;;;;;11.75;4.22;;;;;;;12.23;51.45;100943.69;1773171;79;21034;-91
2022/05/26 19:52:36;;;;;;;13.48;5.22;;;;;;;12.11;51.69;100918.81;1790155;79;21576;-92
2022/05/26 19:55:04;;;;;;;24.07;13.28;;;;;;;12.16;51.87;100939.17;1775757;79;21619;-86
2022/05/26 19:57:31;;;;;;;13.80;4.50;;;;;;;12.13;51.99;100932.93;1780088;79;21019;-85
2022/05/26 19:59:57;;;;;;;6.80;2.67;;;;;;;12.09;52.25;100937.65;1788554;79;22368;-85
2022/05/26 20:06:18;;;;;;;6.72;3.25;;;;;;;12.03;52.58;100947.64;1794585;79;21036;-86
2022/05/26 20:08:47;;;;;;;15.08;6.10;;;;;;;11.97;52.74;100933.89;1796094;79;21286;-92
2022/05/26 20:11:27;;;;;;;15.28;6.03;;;;;;;11.95;52.93;100940.00;1783742;79;21354;-90
2022/05/26 20:13:54;;;;;;;12.35;4.45;;;;;;;11.89;52.98;100935.88;1764413;81;21910;-85
2022/05/26 20:16:22;;;;;;;16.00;6.83;;;;;;;11.83;53.21;100944.11;1784135;79;21051;-86
2022/05/26 20:19:23;;;;;;;9.20;3.62;;;;;;;11.78;53.40;100943.09;1793252;79;21035;-92
2022/05/26 20:21:50;;;;;;;13.78;4.03;;;;;;;11.74;53.56;100947.84;1779023;79;21082;-87
2022/05/26 20:24:18;;;;;;;14.58;4.20;;;;;;;11.69;53.72;100954.75;1764859;80;21047;-86
2022/05/26 20:26:51;;;;;;;15.72;6.35;;;;;;;11.64;53.84;100952.45;1764768;79;21925;-94
2022/05/26 20:30:09;;;;;;;17.17;7.12;;;;;;;11.59;54.04;100955.40;1781975;79;21035;-90
2022/05/26 20:32:51;;;;;;;15.48;3.98;;;;;;;11.55;54.23;100949.59;1769654;79;21012;-91
2022/05/26 20:35:19;;;;;;;12.05;4.40;;;;;;;11.51;54.45;100961.81;1764137;81;21734;-87
2022/05/26 20:37:59;;;;;;;14.68;3.80;;;;;;;11.48;54.58;100965.67;1757093;80;21128;-92
2022/05/26 20:40:27;;;;;;;10.35;3.58;;;;;;;11.45;54.70;100957.28;1777209;79;21860;-93
2022/05/26 20:42:53;;;;;;;24.20;15.25;;;;;;;11.41;54.86;100959.37;1790227;79;21071;-88
2022/05/26 20:45:21;;;;;;;10.70;5.33;;;;;;;11.37;55.05;100957.92;1774615;79;21047;-86
2022/05/26 20:47:48;;;;;;;20.02;7.00;;;;;;;11.34;55.10;100956.55;1776076;80;21046;-90
2022/05/26 20:50:16;;;;;;;11.43;4.20;;;;;;;11.30;55.25;100956.90;1775934;80;21106;-91
2022/05/26 20:52:43;;;;;;;17.80;3.33;;;;;;;11.26;55.48;100960.28;1772827;80;21764;-93
2022/05/26 20:55:24;;;;;;;11.03;3.27;;;;;;;11.22;55.66;100950.13;1764608;80;21017;-90
2022/05/26 20:57:53;;;;;;;9.33;3.67;;;;;;;11.20;55.71;100959.70;1765493;79;21009;-87
2022/05/26 21:00:20;;;;;;;12.25;3.15;;;;;;;11.18;55.97;100961.84;1774046;79;21004;-87
2022/05/26 21:02:52;;;;;;;9.85;3.20;;;;;;;11.18;56.12;100962.72;1752530;79;21086;-87
2022/05/26 21:05:43;;;;;;;10.10;3.40;;;;;;;11.17;56.33;100964.03;1795621;79;22573;-89
2022/05/26 21:08:14;;;;;;;10.72;2.77;;;;;;;11.15;56.36;100961.75;1783911;79;21042;-89
2022/05/26 21:11:05;;;;;;;11.35;3.45;;;;;;;11.08;56.55;100963.35;1770008;79;21398;-88
2022/05/26 21:13:33;;;;;;;11.43;2.80;;;;;;;11.04;56.72;100955.79;1766449;79;21102;-85
2022/05/26 21:16:42;;;;;;;9.08;2.40;;;;;;;10.95;56.99;100950.28;1795867;79;21035;-89
2022/05/26 21:19:08;;;;;;;11.83;2.98;;;;;;;11.00;57.16;100966.19;1796528;79;22670;-85
2022/05/26 21:21:35;;;;;;;8.55;2.87;;;;;;;10.99;57.40;100959.16;1795189;78;21066;-86
2022/05/26 21:24:01;;;;;;;10.55;3.45;;;;;;;10.98;57.53;100954.72;1767193;80;21054;-87
2022/05/26 21:26:37;;;;;;;13.48;3.42;;;;;;;10.96;57.72;100959.98;1776809;80;20992;-87
2022/05/26 21:29:31;;;;;;;11.65;4.10;;;;;;;10.96;57.86;100961.30;1760797;79;21101;-90
2022/05/26 21:32:01;;;;;;;9.80;2.90;;;;;;;10.96;58.05;100947.20;1772805;79;22629;-87
2022/05/26 21:34:28;;;;;;;15.98;4.35;;;;;;;10.96;58.19;100944.58;1784194;79;21054;-87
2022/05/26 21:36:55;;;;;;;12.70;3.72;;;;;;;10.97;58.37;100948.57;1785921;79;21126;-89
2022/05/26 21:39:31;;;;;;;10.35;2.92;;;;;;;10.98;58.46;100945.10;1788508;79;21073;-89
2022/05/26 21:41:58;;;;;;;11.95;2.77;;;;;;;10.99;58.52;100935.45;1789540;79;21234;-90
2022/05/26 21:44:28;;;;;;;8.43;2.30;;;;;;;10.98;58.59;100937.60;1811287;79;22531;-88
2022/05/26 21:46:55;;;;;;;12.98;2.70;;;;;;;10.98;58.67;100937.20;1810648;79;21027;-89
2022/05/26 21:49:22;;;;;;;10.18;2.80;;;;;;;10.97;58.73;100936.72;1788806;79;21022;-88
2022/05/26 21:51:59;;;;;;;10.72;2.37;;;;;;;10.95;58.77;100941.49;1802859;79;21082;-90
2022/05/26 21:54:38;;;;;;;10.93;2.58;;;;;;;10.93;58.90;100944.08;1779067;79;21082;-89
2022/05/26 21:57:05;;;;;;;11.00;2.17;;;;;;;10.92;59.00;100942.28;1795448;79;21755;-87
2022/05/26 21:59:33;;;;;;;9.75;2.00;;;;;;;10.89;59.13;100939.16;1778730;80;21014;-90
2022/05/26 22:02:00;;;;;;;9.20;1.92;;;;;;;10.87;59.20;100938.22;1778237;79;21046;-86
2022/05/26 22:10:40;;;;;;;10.23;2.35;;;;;;;10.85;59.25;100941.24;1780902;77;21074;-86
2022/05/26 22:10:44;;;;;;;13.45;2.25;;;;;;;10.80;59.42;100941.53;1809564;79;22781;-88
2022/05/26 22:13:14;;;;;;;12.70;2.62;;;;;;;10.77;59.59;100940.12;1810384;79;21571;-86
2022/05/26 22:15:41;;;;;;;8.90;2.37;;;;;;;10.76;59.74;100935.73;1808077;79;21130;-87
2022/05/26 22:18:07;;;;;;;11.05;2.45;;;;;;;10.75;59.82;100937.88;1810037;79;21065;-87
2022/05/26 22:20:38;;;;;;;9.03;2.75;;;;;;;10.77;60.00;100937.92;1772751;80;21018;-88
2022/05/26 22:23:05;;;;;;;8.48;3.02;;;;;;;10.76;60.08;100933.09;1772756;80;21400;-86
2022/05/26 22:25:36;;;;;;;13.80;3.05;;;;;;;10.78;60.15;100935.34;1810941;79;21039;-86
2022/05/26 22:28:13;;;;;;;17.20;3.83;;;;;;;10.79;60.19;100929.23;1811467;79;21098;-91
2022/05/26 22:31:26;;;;;;;15.58;5.85;;;;;;;10.79;60.27;100931.87;1811023;78;21011;-90
2022/05/26 22:34:14;;;;;;;12.75;3.12;;;;;;;10.76;60.29;100926.52;1771752;80;21037;-89
2022/05/26 22:36:40;;;;;;;16.48;5.05;;;;;;;10.75;60.36;100918.56;1779768;79;21943;-87
2022/05/26 22:39:07;;;;;;;10.53;3.60;;;;;;;10.73;60.51;100922.90;1801092;79;21567;-86
2022/05/26 22:41:37;;;;;;;17.00;4.15;;;;;;;10.71;60.64;100926.80;1773740;80;21564;-87
2022/05/26 22:44:04;;;;;;;12.73;3.62;;;;;;;10.70;60.69;100933.81;1806212;79;21599;-89
2022/05/26 22:47:08;;;;;;;14.65;4.55;;;;;;;10.68;60.67;100926.30;1797711;79;21078;-90
2022/05/26 22:49:44;;;;;;;10.72;2.95;;;;;;;10.66;60.79;100924.06;1798139;79;21180;-89
2022/05/26 22:52:10;;;;;;;12.93;2.90;;;;;;;10.64;60.80;100915.23;1777795;80;21563;-86
2022/05/26 22:54:38;;;;;;;11.25;3.77;;;;;;;10.59;60.83;100914.20;1777568;80;21082;-88
2022/05/26 22:57:04;;;;;;;12.60;4.17;;;;;;;10.56;60.96;100910.59;1813641;79;22300;-88
2022/05/26 22:59:32;;;;;;;12.30;3.80;;;;;;;10.55;61.05;100905.77;1816223;79;21070;-87
2022/05/26 23:01:59;;;;;;;13.38;4.90;;;;;;;10.54;61.17;100900.45;1766205;79;21738;-87
2022/05/26 23:04:25;;;;;;;12.07;4.45;;;;;;;10.52;61.18;100900.41;1774654;79;21035;-85
2022/05/26 23:06:58;;;;;;;13.55;4.25;;;;;;;10.51;61.33;100899.95;1767084;80;21015;-87
2022/05/26 23:09:26;;;;;;;20.52;9.43;;;;;;;10.49;61.42;100890.70;1742297;81;21036;-87
2022/05/26 23:12:15;;;;;;;16.60;5.90;;;;;;;10.45;61.48;100891.44;1783160;79;21035;-89
2022/05/26 23:15:11;;;;;;;12.43;3.40;;;;;;;10.43;61.57;100885.67;1784076;79;21776;-89
2022/05/26 23:18:13;;;;;;;17.57;4.12;;;;;;;10.37;61.73;100882.88;1793617;79;21065;-88
2022/05/26 23:20:40;;;;;;;12.03;4.03;;;;;;;10.29;61.83;100879.57;1767144;80;21083;-86
2022/05/26 23:23:06;;;;;;;12.70;3.60;;;;;;;10.24;61.97;100884.23;1782702;80;21058;-88
2022/05/26 23:25:35;;;;;;;10.18;2.40;;;;;;;10.19;62.10;100882.80;1777312;79;21078;-87
2022/05/26 23:28:04;;;;;;;10.15;2.83;;;;;;;10.14;62.20;100880.45;1811377;79;21785;-90
2022/05/26 23:31:07;;;;;;;9.65;2.95;;;;;;;10.10;62.40;100883.42;1784980;78;21105;-90
2022/05/26 23:33:40;;;;;;;6.25;1.90;;;;;;;10.07;62.50;100879.38;1772286;80;21493;-89
2022/05/26 23:37:00;;;;;;;7.70;1.85;;;;;;;10.04;62.62;100862.61;1791717;79;21053;-90
2022/05/26 23:39:41;;;;;;;9.05;2.27;;;;;;;10.00;62.71;100860.31;1793373;78;21016;-90
2022/05/26 23:44:59;;;;;;;9.93;2.10;;;;;;;9.91;63.00;100860.08;1816285;79;21039;-90
2022/05/26 23:48:04;;;;;;;12.90;2.43;;;;;;;9.87;63.18;100856.86;1817227;79;21003;-90
2022/05/26 23:50:31;;;;;;;8.98;2.05;;;;;;;9.82;63.27;100847.97;1815509;79;21088;-89
2022/05/26 23:52:58;;;;;;;11.22;2.25;;;;;;;9.76;63.43;100846.05;1754929;80;21068;-87
2022/05/26 23:58:48;;;;;;;10.15;2.60;;;;;;;9.70;63.69;100848.08;1742296;81;21785;-91
